createdAt,value
2018-09-05T00:00:02.079Z,2.77
2018-09-05T00:02:06.938Z,5.03
2018-09-05T00:04:12.364Z,4.03
2018-09-05T00:06:17.641Z,3.97
2018-09-05T00:08:23.510Z,10.43
2018-09-05T00:10:28.485Z,3.40
2018-09-05T00:12:34.578Z,4.00
2018-09-05T00:14:39.457Z,5.37
2018-09-05T00:16:43.877Z,5.87
2018-09-05T00:18:49.565Z,3.30
2018-09-05T00:20:54.718Z,2.60
2018-09-05T00:22:59.844Z,1.70
2018-09-05T00:25:05.614Z,1.80
2018-09-05T00:27:10.926Z,2.13
2018-09-05T00:29:16.180Z,1.50
2018-09-05T00:31:21.660Z,2.93
2018-09-05T00:33:27.162Z,3.20
2018-09-05T00:35:32.085Z,2.83
2018-09-05T00:37:37.340Z,3.13
2018-09-05T00:39:42.608Z,1.80
2018-09-05T00:41:48.223Z,2.93
2018-09-05T00:43:54.110Z,3.93
2018-09-05T00:45:59.294Z,3.83
2018-09-05T00:48:04.624Z,3.20
2018-09-05T00:50:09.825Z,4.30
2018-09-05T00:52:15.897Z,6.60
2018-09-05T00:54:21.632Z,5.10
2018-09-05T00:56:27.602Z,3.73
2018-09-05T00:58:32.661Z,2.87
2018-09-05T01:00:38.386Z,3.30
2018-09-05T01:02:43.992Z,2.10
2018-09-05T01:04:49.351Z,3.47
2018-09-05T01:06:54.860Z,2.23
2018-09-05T01:09:00.254Z,1.83
2018-09-05T01:11:05.851Z,1.80
2018-09-05T01:13:11.720Z,2.00
2018-09-05T01:15:17.229Z,2.33
2018-09-05T01:17:22.492Z,1.87
2018-09-05T01:19:27.988Z,1.90
2018-09-05T01:21:33.761Z,1.80
2018-09-05T01:23:39.178Z,1.97
2018-09-05T01:27:53.779Z,2.70
2018-09-05T01:29:59.102Z,1.87
2018-09-05T01:32:04.449Z,1.63
2018-09-05T01:34:09.288Z,4.03
2018-09-05T01:36:19.282Z,2.03
2018-09-05T01:38:28.474Z,4.63
2018-09-05T01:40:33.921Z,1.70
2018-09-05T01:42:39.707Z,3.37
2018-09-05T01:44:45.327Z,3.03
2018-09-05T01:46:51.310Z,2.60
2018-09-05T01:48:56.122Z,3.30
2018-09-05T01:51:01.436Z,1.60
2018-09-05T01:53:06.748Z,2.37
2018-09-05T01:55:11.613Z,5.13
2018-09-05T01:57:17.493Z,3.30
2018-09-05T02:02:33.282Z,2.37
2018-09-05T02:04:40.448Z,3.40
2018-09-05T02:10:22.642Z,3.03
2018-09-05T02:12:27.812Z,2.00
2018-09-05T02:14:32.658Z,2.40
2018-09-05T02:16:37.892Z,2.83
2018-09-05T02:18:43.604Z,1.70
2018-09-05T02:20:49.267Z,2.90
2018-09-05T02:22:54.565Z,2.07
2018-09-05T02:25:00.109Z,1.90
2018-09-05T02:27:04.680Z,2.50
2018-09-05T02:29:10.290Z,2.40
2018-09-05T02:31:15.944Z,2.40
2018-09-05T02:33:20.747Z,3.70
2018-09-05T02:35:26.045Z,3.00
2018-09-05T02:37:31.982Z,2.73
2018-09-05T02:39:37.558Z,1.90
2018-09-05T02:41:42.956Z,2.80
2018-09-05T02:43:52.820Z,1.60
2018-09-05T02:45:58.237Z,2.27
2018-09-05T02:48:03.706Z,3.73
2018-09-05T02:50:09.233Z,3.30
2018-09-05T02:52:14.142Z,3.10
2018-09-05T02:54:19.979Z,2.73
2018-09-05T02:56:26.620Z,1.90
2018-09-05T02:58:31.391Z,4.17
2018-09-05T03:00:39.845Z,1.60
2018-09-05T03:02:45.175Z,2.27
2018-09-05T03:04:50.031Z,2.43
2018-09-05T03:06:55.837Z,2.70
2018-09-05T03:09:01.331Z,1.67
2018-09-05T03:11:07.191Z,2.30
2018-09-05T03:13:13.179Z,2.80
2018-09-05T03:15:19.155Z,1.73
2018-09-05T03:17:24.300Z,3.33
2018-09-05T03:19:29.332Z,2.70
2018-09-05T03:21:35.550Z,1.90
2018-09-05T03:23:41.246Z,2.33
2018-09-05T03:25:46.585Z,1.60
2018-09-05T03:27:51.331Z,2.17
2018-09-05T03:29:56.586Z,2.63
2018-09-05T03:32:01.826Z,2.33
2018-09-05T03:34:07.421Z,1.83
2018-09-05T03:36:12.720Z,2.23
2018-09-05T03:38:17.620Z,2.40
2018-09-05T03:40:23.052Z,6.83
2018-09-05T03:42:29.592Z,2.60
2018-09-05T03:44:34.769Z,3.13
2018-09-05T03:46:39.503Z,1.20
2018-09-05T03:48:44.424Z,4.10
2018-09-05T03:50:50.789Z,4.07
2018-09-05T03:52:55.868Z,1.97
2018-09-05T03:55:00.949Z,2.50
2018-09-05T03:57:05.833Z,2.77
2018-09-05T03:59:10.843Z,2.23
2018-09-05T04:01:15.703Z,2.30
2018-09-05T04:03:20.861Z,1.60
2018-09-05T04:05:25.732Z,2.30
2018-09-05T04:07:31.257Z,2.13
2018-09-05T04:09:36.190Z,1.70
2018-09-05T04:11:40.911Z,2.20
2018-09-05T04:13:45.522Z,2.20
2018-09-05T04:15:50.620Z,3.17
2018-09-05T04:17:55.763Z,1.70
2018-09-05T04:20:00.370Z,3.37
2018-09-05T04:22:05.332Z,3.67
2018-09-05T04:24:10.106Z,4.10
2018-09-05T04:26:15.005Z,2.10
2018-09-05T04:28:19.873Z,1.67
2018-09-05T04:30:24.759Z,2.40
2018-09-05T04:32:30.333Z,1.97
2018-09-05T04:34:35.254Z,2.30
2018-09-05T04:36:40.144Z,2.40
2018-09-05T04:38:45.643Z,2.07
2018-09-05T04:40:50.589Z,2.20
2018-09-05T04:42:55.260Z,2.30
2018-09-05T04:45:00.108Z,4.73
2018-09-05T04:47:04.993Z,3.60
2018-09-05T04:49:09.799Z,1.90
2018-09-05T04:51:14.769Z,2.00
2018-09-05T04:53:19.657Z,3.13
2018-09-05T04:55:24.535Z,1.97
2018-09-05T04:57:29.596Z,2.00
2018-09-05T04:59:34.599Z,2.10
2018-09-05T05:01:39.333Z,2.23
2018-09-05T05:03:44.096Z,2.80
2018-09-05T05:05:48.901Z,2.80
2018-09-05T05:07:53.722Z,3.20
2018-09-05T05:09:58.417Z,2.20
2018-09-05T05:12:03.166Z,2.50
2018-09-05T05:14:08.250Z,2.00
2018-09-05T05:16:13.314Z,6.10
2018-09-05T05:18:17.900Z,2.20
2018-09-05T05:20:22.954Z,1.93
2018-09-05T05:22:27.714Z,2.30
2018-09-05T05:24:32.456Z,1.67
2018-09-05T05:26:38.422Z,2.67
2018-09-05T05:28:43.317Z,3.77
2018-09-05T05:30:48.369Z,2.07
2018-09-05T05:32:53.445Z,2.77
2018-09-05T05:34:58.164Z,2.33
2018-09-05T05:37:03.120Z,2.27
2018-09-05T05:39:08.206Z,4.60
2018-09-05T05:41:12.912Z,2.60
2018-09-05T05:43:17.602Z,2.40
2018-09-05T05:45:22.490Z,2.93
2018-09-05T05:47:27.329Z,2.77
2018-09-05T05:49:32.098Z,1.90
2018-09-05T05:51:37.037Z,2.23
2018-09-05T05:53:41.656Z,1.70
2018-09-05T05:55:46.579Z,2.70
2018-09-05T05:57:51.458Z,2.70
2018-09-05T05:59:56.270Z,4.90
2018-09-05T06:02:01.030Z,3.20
2018-09-05T06:04:06.125Z,1.83
2018-09-05T06:06:11.031Z,2.03
2018-09-05T06:08:15.613Z,1.93
2018-09-05T06:10:20.903Z,4.13
2018-09-05T06:12:25.719Z,2.13
2018-09-05T06:14:30.369Z,2.33
2018-09-05T06:16:35.149Z,2.13
2018-09-05T06:18:40.144Z,1.63
2018-09-05T06:20:44.997Z,2.33
2018-09-05T06:22:49.873Z,2.60
2018-09-05T06:24:54.401Z,3.53
2018-09-05T06:26:59.307Z,2.87
2018-09-05T06:29:04.226Z,1.80
2018-09-05T06:31:09.072Z,3.63
2018-09-05T06:33:13.865Z,2.50
2018-09-05T06:35:18.458Z,3.90
2018-09-05T06:37:23.204Z,1.63
2018-09-05T06:39:27.904Z,3.40
2018-09-05T06:41:32.624Z,2.93
2018-09-05T06:43:37.707Z,2.03
2018-09-05T06:45:42.355Z,2.07
2018-09-05T06:47:47.020Z,1.70
2018-09-05T06:49:52.141Z,2.73
2018-09-05T06:51:56.831Z,3.00
2018-09-05T06:54:01.632Z,2.33
2018-09-05T06:56:07.061Z,3.00
2018-09-05T06:58:12.071Z,1.60
2018-09-05T07:00:19.019Z,2.47
2018-09-05T07:02:23.680Z,2.40
2018-09-05T07:04:28.307Z,2.23
2018-09-05T07:06:32.907Z,2.70
2018-09-05T07:08:37.654Z,2.30
2018-09-05T07:10:42.404Z,2.47
2018-09-05T07:12:47.166Z,2.47
2018-09-05T07:14:52.040Z,2.00
2018-09-05T07:16:56.775Z,3.63
2018-09-05T07:19:01.962Z,2.20
2018-09-05T07:21:06.808Z,2.77
2018-09-05T07:23:11.587Z,2.67
2018-09-05T07:25:16.162Z,1.93
2018-09-05T07:27:21.062Z,2.93
2018-09-05T07:29:25.882Z,3.37
2018-09-05T07:31:30.834Z,2.30
2018-09-05T07:33:35.654Z,2.80
2018-09-05T07:35:40.536Z,2.77
2018-09-05T07:37:45.630Z,3.87
2018-09-05T07:39:50.384Z,5.63
2018-09-05T07:41:55.175Z,2.40
2018-09-05T07:44:00.290Z,6.33
2018-09-05T07:46:05.026Z,2.90
2018-09-05T07:48:09.814Z,2.93
2018-09-05T07:50:14.851Z,2.60
2018-09-05T07:52:19.680Z,2.80
2018-09-05T07:54:24.437Z,3.20
2018-09-05T07:56:29.169Z,2.53
2018-09-05T07:58:34.041Z,2.83
2018-09-05T08:00:38.832Z,2.00
2018-09-05T08:02:43.784Z,3.53
2018-09-05T08:04:48.983Z,2.33
2018-09-05T08:06:53.669Z,4.13
2018-09-05T08:08:58.525Z,2.33
2018-09-05T08:11:03.308Z,2.30
2018-09-05T08:13:07.991Z,2.80
2018-09-05T08:15:12.760Z,2.17
2018-09-05T08:17:18.634Z,4.73
2018-09-05T08:19:23.532Z,2.67
2018-09-05T08:21:28.201Z,3.20
2018-09-05T08:23:34.351Z,2.43
2018-09-05T08:25:39.039Z,3.00
2018-09-05T08:27:43.857Z,3.03
2018-09-05T08:29:48.673Z,4.73
2018-09-05T08:31:53.437Z,3.90
2018-09-05T08:33:58.037Z,3.70
2018-09-05T08:36:03.277Z,3.93
2018-09-05T08:38:07.938Z,2.77
2018-09-05T08:40:12.576Z,3.70
2018-09-05T08:42:17.366Z,3.20
2018-09-05T08:44:22.532Z,2.80
2018-09-05T08:46:27.478Z,2.43
2018-09-05T08:48:32.044Z,3.37
2018-09-05T08:50:36.820Z,2.90
2018-09-05T08:52:41.763Z,2.87
2018-09-05T08:54:47.010Z,3.80
2018-09-05T08:56:51.735Z,3.87
2018-09-05T08:58:56.412Z,2.90
2018-09-05T09:01:01.577Z,4.13
2018-09-05T09:03:06.392Z,7.37
2018-09-05T09:05:11.780Z,4.33
2018-09-05T09:07:16.939Z,5.73
2018-09-05T09:09:21.930Z,5.50
2018-09-05T09:11:26.707Z,3.40
2018-09-05T09:13:31.611Z,3.20
2018-09-05T09:15:36.973Z,8.27
2018-09-05T09:17:41.826Z,6.30
2018-09-05T09:19:46.635Z,7.93
2018-09-05T09:21:51.647Z,5.33
2018-09-05T09:23:56.416Z,5.47
2018-09-05T09:26:01.486Z,7.53
2018-09-05T09:28:06.302Z,4.87
2018-09-05T09:30:10.924Z,8.33
2018-09-05T09:32:15.583Z,5.97
2018-09-05T09:34:20.520Z,8.77
2018-09-05T09:36:25.212Z,7.13
2018-09-05T09:38:30.101Z,5.20
2018-09-05T09:40:34.719Z,10.70
2018-09-05T09:42:39.372Z,6.00
2018-09-05T09:44:44.309Z,36.43
2018-09-05T09:46:48.993Z,37.27
2018-09-05T09:48:53.672Z,27.87
2018-09-05T09:50:58.584Z,25.60
2018-09-05T09:53:03.132Z,20.10
2018-09-05T09:55:07.775Z,18.40
2018-09-05T09:57:12.932Z,14.80
2018-09-05T09:59:17.660Z,13.47
2018-09-05T10:01:26.596Z,10.97
2018-09-05T10:03:35.938Z,11.27
2018-09-05T10:05:45.193Z,10.37
2018-09-05T10:07:54.052Z,9.90
2018-09-05T10:10:03.275Z,9.10
2018-09-05T10:12:12.308Z,8.03
2018-09-05T10:14:21.568Z,7.60
2018-09-05T10:16:30.775Z,7.00
2018-09-05T10:18:38.941Z,7.80
2018-09-05T10:20:43.741Z,7.80
2018-09-05T10:22:49.010Z,10.80
2018-09-05T10:24:55.120Z,146.67
2018-09-05T10:27:03.943Z,53.33
2018-09-05T10:29:08.726Z,30.50
2018-09-05T10:31:13.688Z,31.57
2018-09-05T10:33:18.449Z,28.37
2018-09-05T10:35:23.190Z,30.23
2018-09-05T10:37:28.056Z,29.20
2018-09-05T10:39:32.709Z,30.37
2018-09-05T10:41:37.537Z,28.97
2018-09-05T10:43:43.828Z,29.03
2018-09-05T10:45:48.673Z,27.67
2018-09-05T10:47:53.308Z,25.47
2018-09-05T10:49:58.169Z,25.90
2018-09-05T10:52:06.578Z,28.57
2018-09-05T10:54:11.367Z,26.30
2018-09-05T10:56:16.310Z,23.57
2018-09-05T10:58:20.987Z,26.27
2018-09-05T11:00:25.773Z,26.20
2018-09-05T11:02:30.642Z,22.70
2018-09-05T11:04:35.668Z,25.70
2018-09-05T11:06:40.528Z,25.30
2018-09-05T11:08:45.465Z,23.27
2018-09-05T11:10:50.261Z,29.37
2018-09-05T11:12:55.101Z,27.00
2018-09-05T11:15:00.035Z,24.73
2018-09-05T11:17:04.716Z,24.70
2018-09-05T11:19:09.825Z,23.60
2018-09-05T11:21:15.011Z,22.77
2018-09-05T11:23:19.932Z,21.73
2018-09-05T11:25:24.659Z,22.90
2018-09-05T11:27:29.262Z,22.93
2018-09-05T11:29:34.042Z,23.43
2018-09-05T11:31:38.974Z,23.87
2018-09-05T11:33:43.726Z,23.77
2018-09-05T11:35:48.603Z,29.43
2018-09-05T11:37:53.191Z,56.97
2018-09-05T11:39:58.061Z,257.20
2018-09-05T11:42:03.129Z,445.93
2018-09-05T11:44:08.071Z,126.57
2018-09-05T11:46:16.475Z,86.43
2018-09-05T11:48:21.378Z,79.63
2018-09-05T11:50:26.294Z,77.43
2018-09-05T11:52:31.044Z,74.20
2018-09-05T11:54:40.454Z,70.10
2018-09-05T11:56:45.353Z,66.07
2018-09-05T11:58:58.846Z,62.43
2018-09-05T12:01:04.163Z,57.83
2018-09-05T12:03:09.040Z,58.90
2018-09-05T12:05:13.818Z,56.60
2018-09-05T12:07:19.127Z,53.93
2018-09-05T12:09:23.940Z,51.30
2018-09-05T12:11:28.691Z,50.97
2018-09-05T12:13:33.584Z,48.93
2018-09-05T12:15:38.336Z,48.53
2018-09-05T12:17:43.321Z,49.20
2018-09-05T12:19:49.240Z,43.73
2018-09-05T12:21:54.197Z,47.10
2018-09-05T12:23:59.473Z,47.03
2018-09-05T12:26:04.138Z,45.33
2018-09-05T12:28:08.785Z,42.13
2018-09-05T12:30:13.696Z,44.30
2018-09-05T12:32:18.440Z,43.77
2018-09-05T12:34:23.134Z,41.67
2018-09-05T12:36:28.142Z,42.60
2018-09-05T12:38:32.565Z,40.57
2018-09-05T12:40:37.516Z,39.40
2018-09-05T12:42:42.606Z,39.13
2018-09-05T12:44:48.036Z,38.50
2018-09-05T12:46:53.063Z,37.07
2018-09-05T12:48:58.197Z,36.43
2018-09-05T12:51:03.301Z,36.73
2018-09-05T12:53:08.257Z,33.17
2018-09-05T12:55:12.994Z,35.93
2018-09-05T12:57:17.926Z,34.50
2018-09-05T12:59:22.553Z,36.07
2018-09-05T13:01:27.688Z,34.20
2018-09-05T13:03:33.080Z,33.30
2018-09-05T13:05:37.898Z,33.67
2018-09-05T13:07:43.202Z,34.13
2018-09-05T13:09:48.239Z,32.53
2018-09-05T13:11:53.012Z,33.70
2018-09-05T13:13:57.773Z,32.03
2018-09-05T13:16:02.475Z,31.60
2018-09-05T13:18:07.444Z,33.07
2018-09-05T13:20:12.392Z,29.80
2018-09-05T13:22:17.438Z,27.50
2018-09-05T13:24:22.280Z,28.20
2018-09-05T13:26:27.213Z,28.27
2018-09-05T13:28:32.442Z,27.97
2018-09-05T13:30:37.311Z,27.33
2018-09-05T13:32:42.118Z,28.80
2018-09-05T13:34:46.807Z,24.47
2018-09-05T13:36:51.699Z,27.10
2018-09-05T13:38:56.606Z,27.33
2018-09-05T13:41:01.754Z,29.10
2018-09-05T13:43:06.574Z,26.73
2018-09-05T13:45:11.287Z,26.53
2018-09-05T13:47:16.896Z,25.93
2018-09-05T13:49:22.278Z,26.20
2018-09-05T13:51:27.189Z,26.47
2018-09-05T13:53:32.351Z,25.80
2018-09-05T13:55:37.470Z,24.03
2018-09-05T13:57:42.359Z,24.03
2018-09-05T13:59:47.277Z,27.07
2018-09-05T14:01:52.149Z,23.80
2018-09-05T14:03:56.877Z,25.20
2018-09-05T14:06:01.608Z,22.93
2018-09-05T14:08:06.495Z,24.77
2018-09-05T14:10:11.133Z,26.13
2018-09-05T14:12:17.263Z,22.33
2018-09-05T14:14:22.120Z,22.77
2018-09-05T14:16:26.944Z,22.33
2018-09-05T14:18:31.843Z,22.33
2018-09-05T14:20:36.831Z,21.93
2018-09-05T14:22:42.017Z,23.10
2018-09-05T14:24:47.029Z,25.03
2018-09-05T14:26:53.135Z,21.17
2018-09-05T14:28:58.114Z,21.37
2018-09-05T14:31:03.351Z,23.30
2018-09-05T14:33:08.436Z,22.37
2018-09-05T14:35:13.396Z,23.10
2018-09-05T14:37:18.384Z,23.67
2018-09-05T14:39:23.078Z,22.20
2018-09-05T14:41:27.966Z,21.80
2018-09-05T14:43:33.055Z,23.30
2018-09-05T14:45:37.668Z,20.13
2018-09-05T14:47:42.666Z,21.77
2018-09-05T14:49:48.161Z,21.03
2018-09-05T14:51:53.362Z,22.13
2018-09-05T14:53:58.335Z,21.60
2018-09-05T14:56:02.939Z,20.93
2018-09-05T14:58:07.720Z,21.47
2018-09-05T15:00:13.634Z,21.47
2018-09-05T15:02:18.345Z,23.97
2018-09-05T15:04:23.112Z,23.23
2018-09-05T15:06:28.332Z,21.30
2018-09-05T15:08:32.982Z,19.60
2018-09-05T15:10:39.005Z,20.53
2018-09-05T15:12:43.965Z,21.03
2018-09-05T15:14:48.769Z,20.10
2018-09-05T15:16:53.606Z,20.43
2018-09-05T15:18:58.501Z,20.27
2018-09-05T15:21:03.380Z,21.90
2018-09-05T15:23:09.560Z,21.03
2018-09-05T15:25:14.698Z,22.33
2018-09-05T15:27:20.420Z,22.53
2018-09-05T15:29:25.404Z,22.47
2018-09-05T15:31:30.165Z,21.37
2018-09-05T15:33:34.703Z,21.23
2018-09-05T15:38:13.017Z,23.37
2018-09-05T15:40:17.710Z,22.13
2018-09-05T15:42:22.707Z,23.37
2018-09-05T15:44:27.617Z,22.20
2018-09-05T15:46:32.392Z,24.53
2018-09-05T15:48:37.085Z,25.40
2018-09-05T15:50:42.007Z,25.20
2018-09-05T15:52:47.023Z,23.23
2018-09-05T15:54:52.014Z,22.03
2018-09-05T15:56:56.864Z,22.10
2018-09-05T15:59:01.655Z,21.27
2018-09-05T16:01:06.614Z,21.20
2018-09-05T16:03:11.421Z,20.27
2018-09-05T16:05:16.315Z,23.00
2018-09-05T16:07:21.480Z,20.47
2018-09-05T16:09:26.377Z,22.37
2018-09-05T16:11:31.204Z,20.53
2018-09-05T16:13:35.839Z,20.83
2018-09-05T16:15:40.849Z,21.50
2018-09-05T16:17:45.970Z,20.23
2018-09-05T16:19:50.928Z,21.93
2018-09-05T16:21:55.759Z,21.17
2018-09-05T16:24:00.508Z,20.97
2018-09-05T16:26:05.703Z,23.90
2018-09-05T16:28:10.204Z,21.40
2018-09-05T16:30:15.185Z,21.47
2018-09-05T16:32:19.828Z,20.63
2018-09-05T16:34:24.555Z,22.90
2018-09-05T16:36:29.647Z,22.47
2018-09-05T16:38:34.620Z,21.43
2018-09-05T16:40:39.446Z,21.87
2018-09-05T16:42:43.971Z,23.00
2018-09-05T16:44:48.997Z,21.97
2018-09-05T16:46:54.063Z,23.87
2018-09-05T16:48:58.887Z,23.77
2018-09-05T16:51:03.599Z,24.93
2018-09-05T16:53:08.736Z,23.17
2018-09-05T16:55:13.692Z,26.27
2018-09-05T16:57:18.405Z,23.17
2018-09-05T16:59:23.225Z,24.07
2018-09-05T17:01:28.067Z,24.00
2018-09-05T17:03:32.940Z,23.40
2018-09-05T17:05:38.999Z,21.70
2018-09-05T17:07:43.844Z,23.07
2018-09-05T17:09:48.592Z,23.70
2018-09-05T17:11:53.297Z,23.70
2018-09-05T17:13:58.287Z,20.90
2018-09-05T17:16:03.049Z,22.43
2018-09-05T17:18:08.002Z,22.63
2018-09-05T17:20:12.917Z,23.23
2018-09-05T17:22:17.905Z,24.23
2018-09-05T17:24:23.463Z,22.93
2018-09-05T17:26:28.492Z,21.30
2018-09-05T17:28:33.373Z,22.93
2018-09-05T17:30:38.426Z,22.30
2018-09-05T17:32:43.055Z,21.40
2018-09-05T17:34:48.268Z,23.10
2018-09-05T17:39:03.660Z,22.00
2018-09-05T17:41:08.316Z,23.23
2018-09-05T17:43:12.899Z,24.97
2018-09-05T17:45:17.855Z,24.00
2018-09-05T17:47:22.747Z,23.43
2018-09-05T17:49:27.562Z,22.17
2018-09-05T17:51:32.490Z,22.30
2018-09-05T17:53:37.921Z,26.70
2018-09-05T17:55:42.917Z,23.40
2018-09-05T17:57:47.765Z,22.87
2018-09-05T17:59:52.850Z,22.47
2018-09-05T18:01:57.732Z,24.53
2018-09-05T18:04:03.235Z,24.17
2018-09-05T18:06:08.283Z,24.87
2018-09-05T18:08:13.088Z,24.50
2018-09-05T18:10:18.492Z,24.70
2018-09-05T18:12:32.423Z,23.50
2018-09-05T18:17:01.735Z,26.10
2018-09-05T18:19:06.890Z,23.73
2018-09-05T18:21:11.873Z,25.20
2018-09-05T18:23:16.865Z,26.70
2018-09-05T18:25:21.605Z,23.37
2018-09-05T18:27:26.804Z,24.73
2018-09-05T18:29:31.797Z,25.70
2018-09-05T18:31:36.770Z,25.37
2018-09-05T18:33:45.430Z,25.00
2018-09-05T18:35:50.334Z,26.07
2018-09-05T18:37:55.086Z,26.13
2018-09-05T18:39:59.857Z,25.83
2018-09-05T18:42:04.681Z,25.43
2018-09-05T18:44:09.488Z,27.53
2018-09-05T18:46:14.383Z,26.17
2018-09-05T18:48:19.079Z,29.37
2018-09-05T18:50:23.996Z,27.40
2018-09-05T18:52:28.601Z,29.30
2018-09-05T18:54:33.542Z,26.60
2018-09-05T18:56:38.454Z,26.23
2018-09-05T18:58:47.236Z,27.00
2018-09-05T19:00:52.161Z,25.87
2018-09-05T19:02:57.040Z,25.03
2018-09-05T19:05:02.116Z,28.80
2018-09-05T19:07:06.840Z,25.83
2018-09-05T19:09:13.374Z,25.10
2018-09-05T19:11:18.074Z,26.20
2018-09-05T19:13:22.915Z,29.00
2018-09-05T19:15:27.842Z,27.60
2018-09-05T19:17:32.836Z,28.07
2018-09-05T19:19:37.701Z,28.00
2018-09-05T19:21:42.611Z,27.97
2018-09-05T19:23:47.793Z,28.07
2018-09-05T19:25:52.447Z,27.17
2018-09-05T19:27:57.008Z,26.70
2018-09-05T19:30:01.786Z,27.57
2018-09-05T19:32:06.430Z,25.53
2018-09-05T19:34:11.516Z,29.27
2018-09-05T19:36:16.333Z,27.37
2018-09-05T19:38:21.052Z,27.17
2018-09-05T19:40:26.882Z,25.70
2018-09-05T19:42:31.869Z,29.40
2018-09-05T19:44:37.072Z,24.57
2018-09-05T19:46:41.993Z,27.13
2018-09-05T19:48:47.330Z,24.53
2018-09-05T19:50:52.108Z,27.43
2018-09-05T19:52:58.056Z,26.53
2018-09-05T19:55:03.250Z,26.50
2018-09-05T19:57:10.621Z,25.97
2018-09-05T19:59:16.252Z,25.77
2018-09-05T20:01:21.116Z,27.33
2018-09-05T20:03:25.912Z,27.87
2018-09-05T20:05:30.670Z,26.90
2018-09-05T20:07:35.378Z,27.30
2018-09-05T20:09:40.399Z,25.43
2018-09-05T20:11:45.444Z,25.40
2018-09-05T20:13:50.255Z,25.40
2018-09-05T20:15:55.148Z,27.10
2018-09-05T20:18:00.531Z,26.30
2018-09-05T20:20:05.208Z,24.40
2018-09-05T20:22:10.085Z,27.97
2018-09-05T20:24:20.871Z,26.73
2018-09-05T20:26:26.243Z,28.37
2018-09-05T20:28:31.124Z,28.57
2018-09-05T20:30:35.843Z,26.13
2018-09-05T20:32:43.147Z,28.50
2018-09-05T20:34:48.270Z,28.37
2018-09-05T20:36:54.093Z,26.83
2018-09-05T20:38:59.221Z,27.30
2018-09-05T20:41:04.157Z,26.43
2018-09-05T20:43:09.117Z,25.90
2018-09-05T20:45:14.852Z,27.90
2018-09-05T20:47:19.637Z,27.10
2018-09-05T20:49:24.570Z,26.67
2018-09-05T20:51:29.469Z,23.70
2018-09-05T20:53:34.412Z,27.10
2018-09-05T20:55:39.172Z,24.20
2018-09-05T20:57:44.115Z,26.93
2018-09-05T20:59:49.076Z,25.70
2018-09-05T21:01:53.822Z,25.70
2018-09-05T21:03:58.842Z,26.83
2018-09-05T21:06:04.382Z,24.93
2018-09-05T21:08:09.380Z,24.83
2018-09-05T21:10:14.656Z,26.40
2018-09-05T21:12:19.293Z,26.20
2018-09-05T21:14:24.208Z,26.40
2018-09-05T21:16:29.058Z,24.40
2018-09-05T21:18:33.900Z,26.37
2018-09-05T21:20:38.680Z,26.87
2018-09-05T21:22:43.578Z,23.83
2018-09-05T21:24:48.513Z,24.10
2018-09-05T21:26:53.579Z,25.27
2018-09-05T21:28:59.149Z,23.60
2018-09-05T21:31:04.156Z,24.77
2018-09-05T21:33:09.022Z,24.53
2018-09-05T21:35:13.893Z,23.20
2018-09-05T21:37:19.242Z,22.83
2018-09-05T21:39:24.153Z,22.60
2018-09-05T21:41:28.896Z,24.57
2018-09-05T21:43:34.030Z,23.53
2018-09-05T21:45:39.059Z,25.53
2018-09-05T21:47:45.251Z,29.80
2018-09-05T21:49:50.336Z,32.27
2018-09-05T21:51:55.248Z,30.30
2018-09-05T21:54:00.190Z,28.33
2018-09-05T21:56:05.978Z,26.77
2018-09-05T21:58:10.752Z,28.23
2018-09-05T22:00:17.215Z,26.73
2018-09-05T22:02:22.685Z,27.60
2018-09-05T22:04:28.236Z,29.40
2018-09-05T22:06:33.649Z,26.47
2018-09-05T22:08:39.269Z,26.90
2018-09-05T22:10:44.661Z,29.00
2018-09-05T22:12:50.468Z,27.13
2018-09-05T22:14:56.011Z,27.00
2018-09-05T22:17:01.438Z,24.70
2018-09-05T22:19:06.925Z,25.50
2018-09-05T22:21:12.002Z,27.00
2018-09-05T22:23:31.062Z,24.87
2018-09-05T22:25:37.278Z,25.77
2018-09-05T22:27:42.679Z,25.80
2018-09-05T22:29:48.468Z,23.13
2018-09-05T22:31:55.486Z,24.23
2018-09-05T22:34:00.754Z,25.27
2018-09-05T22:36:07.965Z,23.43
2018-09-05T22:38:13.628Z,23.00
2018-09-05T22:40:19.687Z,24.77
2018-09-05T22:42:24.921Z,25.40
2018-09-05T22:44:30.239Z,30.77
2018-09-05T22:46:35.611Z,32.53
2018-09-05T22:48:46.067Z,36.03
2018-09-05T22:50:55.745Z,28.90
2018-09-05T22:53:05.197Z,29.83
2018-09-05T22:55:14.426Z,29.50
2018-09-05T22:57:23.364Z,30.23
2018-09-05T22:59:27.925Z,33.10
2018-09-05T23:01:32.545Z,32.67
2018-09-05T23:03:37.437Z,36.70
2018-09-05T23:05:43.177Z,29.37
2018-09-05T23:07:50.039Z,54.50
2018-09-05T23:09:54.981Z,47.83
2018-09-05T23:12:00.015Z,44.30
2018-09-05T23:14:04.916Z,26.03
2018-09-05T23:16:09.791Z,29.40
2018-09-05T23:18:15.481Z,33.43
2018-09-05T23:20:20.671Z,27.07
2018-09-05T23:22:25.675Z,29.13
2018-09-05T23:24:30.420Z,34.23
2018-09-05T23:26:35.295Z,22.50
2018-09-05T23:28:40.693Z,21.60
2018-09-05T23:30:45.655Z,20.57
2018-09-05T23:32:50.716Z,18.70
2018-09-05T23:34:55.927Z,20.43
2018-09-05T23:37:01.611Z,13.70
2018-09-05T23:39:07.199Z,14.60
2018-09-05T23:41:12.388Z,11.57
2018-09-05T23:43:17.482Z,13.97
2018-09-05T23:45:22.751Z,14.73
2018-09-05T23:47:45.920Z,11.53
2018-09-05T23:49:52.186Z,10.43
2018-09-05T23:51:57.595Z,9.90
2018-09-05T23:54:03.084Z,9.33
2018-09-05T23:56:07.847Z,12.03
2018-09-05T23:58:13.857Z,8.70
